createdAt,value
2023-04-15T00:01:47.091Z,11.91
2023-04-15T00:04:13.590Z,11.86
2023-04-15T00:06:40.070Z,11.85
2023-04-15T00:09:06.457Z,11.85
2023-04-15T00:11:32.852Z,11.79
2023-04-15T00:13:59.206Z,11.74
2023-04-15T00:16:26.923Z,11.74
2023-04-15T00:18:53.309Z,11.81
2023-04-15T00:21:19.642Z,11.82
2023-04-15T00:23:46.020Z,11.83
2023-04-15T00:26:12.369Z,11.85
2023-04-15T00:28:38.744Z,11.84
2023-04-15T00:31:05.116Z,11.82
2023-04-15T00:33:31.554Z,11.80
2023-04-15T00:35:57.944Z,11.78
2023-04-15T00:38:24.300Z,11.79
2023-04-15T00:40:50.678Z,11.81
2023-04-15T00:43:17.059Z,11.77
2023-04-15T00:45:43.498Z,11.73
2023-04-15T00:48:09.903Z,11.76
2023-04-15T00:50:36.295Z,11.78
2023-04-15T00:53:02.678Z,11.76
2023-04-15T00:55:29.044Z,11.71
2023-04-15T00:57:55.384Z,11.70
2023-04-15T01:00:21.759Z,11.67
2023-04-15T01:02:48.237Z,11.62
2023-04-15T01:05:14.660Z,11.62
2023-04-15T01:07:40.997Z,11.65
2023-04-15T01:10:07.374Z,11.66
2023-04-15T01:12:33.753Z,11.61
2023-04-15T01:15:00.257Z,11.65
2023-04-15T01:17:26.690Z,11.69
2023-04-15T01:19:53.077Z,11.69
2023-04-15T01:22:19.409Z,11.71
2023-04-15T01:24:45.738Z,11.70
2023-04-15T01:27:12.104Z,11.69
2023-04-15T01:29:38.450Z,11.68
2023-04-15T01:32:04.801Z,11.65
2023-04-15T01:34:31.817Z,11.53
2023-04-15T01:36:58.875Z,11.50
2023-04-15T01:39:25.257Z,11.44
2023-04-15T01:41:51.640Z,11.45
2023-04-15T01:44:18.021Z,11.48
2023-04-15T01:46:44.502Z,11.56
2023-04-15T01:49:10.869Z,11.53
2023-04-15T01:51:37.197Z,11.53
2023-04-15T01:54:03.578Z,11.56
2023-04-15T01:56:29.926Z,11.59
2023-04-15T01:58:56.297Z,11.54
2023-04-15T02:01:23.803Z,11.54
2023-04-15T02:03:50.316Z,11.51
2023-04-15T02:06:16.762Z,11.45
2023-04-15T02:08:43.113Z,11.43
2023-04-15T02:11:09.476Z,11.50
2023-04-15T02:13:35.812Z,11.50
2023-04-15T02:16:02.195Z,11.50
2023-04-15T02:18:28.568Z,11.51
2023-04-15T02:20:55.096Z,11.50
2023-04-15T02:23:21.461Z,11.46
2023-04-15T02:25:53.486Z,11.38
2023-04-15T02:28:20.641Z,11.38
2023-04-15T02:30:47.015Z,11.30
2023-04-15T02:33:13.416Z,11.31
2023-04-15T02:35:39.814Z,11.35
2023-04-15T02:38:06.169Z,11.38
2023-04-15T02:40:34.898Z,11.41
2023-04-15T02:43:01.259Z,11.37
2023-04-15T02:45:27.620Z,11.34
2023-04-15T02:47:54.020Z,11.34
2023-04-15T02:50:20.383Z,11.33
2023-04-15T02:52:46.761Z,11.29
2023-04-15T02:55:13.136Z,11.29
2023-04-15T02:57:39.491Z,11.32
2023-04-15T03:00:05.863Z,11.32
2023-04-15T03:02:32.338Z,11.24
2023-04-15T03:04:58.826Z,11.23
2023-04-15T03:07:25.174Z,11.24
2023-04-15T03:09:51.570Z,11.21
2023-04-15T03:12:17.962Z,11.20
2023-04-15T03:14:44.313Z,11.20
2023-04-15T03:17:10.855Z,11.17
2023-04-15T03:19:37.267Z,11.17
2023-04-15T03:22:03.609Z,11.14
2023-04-15T03:24:29.994Z,11.14
2023-04-15T03:26:56.335Z,11.08
2023-04-15T03:29:22.717Z,11.07
2023-04-15T03:31:49.067Z,11.05
2023-04-15T03:34:15.453Z,11.11
2023-04-15T03:36:41.786Z,11.10
2023-04-15T03:39:08.134Z,11.12
2023-04-15T03:41:34.471Z,11.13
2023-04-15T03:44:00.838Z,11.12
2023-04-15T03:46:27.277Z,11.14
2023-04-15T03:48:53.632Z,11.12
2023-04-15T03:51:20.003Z,11.12
2023-04-15T03:53:46.449Z,11.11
2023-04-15T03:56:12.816Z,11.08
2023-04-15T03:58:39.151Z,11.05
2023-04-15T04:01:05.520Z,11.00
2023-04-15T04:03:31.967Z,11.02
2023-04-15T04:05:58.405Z,11.07
2023-04-15T04:08:24.770Z,11.09
2023-04-15T04:10:51.181Z,11.06
2023-04-15T04:13:17.588Z,11.03
2023-04-15T04:15:44.028Z,11.05
2023-04-15T04:18:10.420Z,11.05
2023-04-15T04:20:36.787Z,11.07
2023-04-15T04:23:03.165Z,11.04
2023-04-15T04:25:29.567Z,11.09
2023-04-15T04:27:55.934Z,11.14
2023-04-15T04:30:22.320Z,11.10
2023-04-15T04:32:48.751Z,11.11
2023-04-15T04:35:15.178Z,11.11
2023-04-15T04:37:41.546Z,11.12
2023-04-15T04:40:07.898Z,11.09
2023-04-15T04:42:34.231Z,11.06
2023-04-15T04:45:00.608Z,11.14
2023-04-15T04:47:27.011Z,11.06
2023-04-15T04:49:53.410Z,11.05
2023-04-15T04:52:19.802Z,11.04
2023-04-15T04:54:46.207Z,11.01
2023-04-15T04:57:12.542Z,10.96
2023-04-15T04:59:38.935Z,10.96
2023-04-15T05:02:05.367Z,10.99
2023-04-15T05:04:31.830Z,11.07
2023-04-15T05:06:58.217Z,11.10
2023-04-15T05:09:24.558Z,11.15
2023-04-15T05:11:50.902Z,11.12
2023-04-15T05:14:17.290Z,11.09
2023-04-15T05:16:43.646Z,11.05
2023-04-15T05:19:09.978Z,11.09
2023-04-15T05:21:38.235Z,11.18
2023-04-15T05:24:05.727Z,11.22
2023-04-15T05:26:32.063Z,11.21
2023-04-15T05:28:58.520Z,11.21
2023-04-15T05:31:25.151Z,11.16
2023-04-15T05:33:51.583Z,11.15
2023-04-15T05:36:17.996Z,11.14
2023-04-15T05:38:44.387Z,11.17
2023-04-15T05:41:10.744Z,11.14
2023-04-15T05:43:37.086Z,11.26
2023-04-15T05:46:03.469Z,11.28
2023-04-15T05:48:29.893Z,11.38
2023-04-15T05:50:56.316Z,11.38
2023-04-15T05:53:22.675Z,11.30
2023-04-15T05:55:49.058Z,11.33
2023-04-15T05:58:15.425Z,11.33
2023-04-15T06:00:41.801Z,11.34
2023-04-15T06:03:08.298Z,11.34
2023-04-15T06:05:34.787Z,11.39
2023-04-15T06:08:01.156Z,11.40
2023-04-15T06:10:27.498Z,11.43
2023-04-15T06:12:53.881Z,11.41
2023-04-15T06:15:20.264Z,11.35
2023-04-15T06:17:46.686Z,11.32
2023-04-15T06:20:13.083Z,11.26
2023-04-15T06:22:39.457Z,11.19
2023-04-15T06:25:05.873Z,11.23
2023-04-15T06:27:32.261Z,11.18
2023-04-15T06:29:58.661Z,11.20
2023-04-15T06:32:25.045Z,11.24
2023-04-15T06:34:51.390Z,11.19
2023-04-15T06:37:17.725Z,11.17
2023-04-15T06:39:44.055Z,11.15
2023-04-15T06:42:10.430Z,11.14
2023-04-15T06:44:36.796Z,11.11
2023-04-15T06:47:03.133Z,11.12
2023-04-15T06:49:29.472Z,11.07
2023-04-15T06:51:55.839Z,11.11
2023-04-15T06:54:22.233Z,11.11
2023-04-15T06:56:48.624Z,11.12
2023-04-15T06:59:14.973Z,11.22
2023-04-15T07:01:41.310Z,11.24
2023-04-15T07:04:07.760Z,11.26
2023-04-15T07:06:34.175Z,11.27
2023-04-15T07:09:00.852Z,11.35
2023-04-15T07:11:27.404Z,11.40
2023-04-15T07:13:53.785Z,11.41
2023-04-15T07:16:20.190Z,11.41
2023-04-15T07:18:46.578Z,11.39
2023-04-15T07:21:12.996Z,11.39
2023-04-15T07:23:39.352Z,11.48
2023-04-15T07:26:05.731Z,11.54
2023-04-15T07:28:32.111Z,11.50
2023-04-15T07:30:58.495Z,11.56
2023-04-15T07:33:24.890Z,11.67
2023-04-15T07:35:51.282Z,11.59
2023-04-15T07:38:17.640Z,11.70
2023-04-15T07:40:44.029Z,11.69
2023-04-15T07:43:10.383Z,11.71
2023-04-15T07:45:36.759Z,11.71
2023-04-15T07:48:03.136Z,11.78
2023-04-15T07:50:29.568Z,11.89
2023-04-15T07:52:55.939Z,11.92
2023-04-15T07:55:22.284Z,12.00
2023-04-15T07:57:48.666Z,12.03
2023-04-15T08:00:15.000Z,12.14
2023-04-15T08:02:41.578Z,12.20
2023-04-15T08:05:08.194Z,12.18
2023-04-15T08:07:34.570Z,12.21
2023-04-15T08:10:00.935Z,12.23
2023-04-15T08:12:27.299Z,12.27
2023-04-15T08:14:53.684Z,12.28
2023-04-15T08:17:20.053Z,12.30
2023-04-15T08:19:46.439Z,12.35
2023-04-15T08:22:17.873Z,12.40
2023-04-15T08:24:44.907Z,12.35
2023-04-15T08:27:11.274Z,12.34
2023-04-15T08:29:37.622Z,12.33
2023-04-15T08:32:03.992Z,12.34
2023-04-15T08:34:30.340Z,12.36
2023-04-15T08:36:56.726Z,12.48
2023-04-15T08:39:23.074Z,12.50
2023-04-15T08:41:49.417Z,12.51
2023-04-15T08:44:15.755Z,12.51
2023-04-15T08:46:42.225Z,12.48
2023-04-15T08:49:08.623Z,12.39
2023-04-15T08:51:35.022Z,12.36
2023-04-15T08:54:01.496Z,12.34
2023-04-15T08:56:27.936Z,12.31
2023-04-15T08:58:54.392Z,12.33
2023-04-15T09:01:20.771Z,12.28
2023-04-15T09:03:47.212Z,12.27
2023-04-15T09:06:13.764Z,12.26
2023-04-15T09:08:40.146Z,12.34
2023-04-15T09:11:06.543Z,12.29
2023-04-15T09:13:32.892Z,12.30
2023-04-15T09:15:59.261Z,12.26
2023-04-15T09:18:25.624Z,12.37
2023-04-15T09:20:51.971Z,12.49
2023-04-15T09:23:18.307Z,12.48
2023-04-15T09:25:44.684Z,12.56
2023-04-15T09:28:11.038Z,12.58
2023-04-15T09:30:37.458Z,12.62
2023-04-15T09:33:03.894Z,12.62
2023-04-15T09:35:30.293Z,12.64
2023-04-15T09:37:56.717Z,12.57
2023-04-15T09:40:23.065Z,12.50
2023-04-15T09:42:50.331Z,12.58
2023-04-15T09:45:16.723Z,12.64
2023-04-15T09:47:43.175Z,12.50
2023-04-15T09:50:09.540Z,12.43
2023-04-15T09:52:35.871Z,12.43
2023-04-15T09:55:02.226Z,12.48
2023-04-15T09:57:28.595Z,12.48
2023-04-15T09:59:54.938Z,12.51
2023-04-15T10:02:21.397Z,12.51
2023-04-15T10:04:47.871Z,12.46
2023-04-15T10:07:14.227Z,12.42
2023-04-15T10:09:40.597Z,12.44
2023-04-15T10:12:06.951Z,12.44
2023-04-15T10:14:33.287Z,12.42
2023-04-15T10:16:59.621Z,12.50
2023-04-15T10:19:25.997Z,12.51
2023-04-15T10:21:52.336Z,12.61
2023-04-15T10:24:18.670Z,12.62
2023-04-15T10:26:45.005Z,12.63
2023-04-15T10:29:11.397Z,12.55
2023-04-15T10:31:37.767Z,12.63
2023-04-15T10:34:04.476Z,12.71
2023-04-15T10:36:30.894Z,12.80
2023-04-15T10:38:57.264Z,12.98
2023-04-15T10:41:23.606Z,13.07
2023-04-15T10:43:49.978Z,13.14
2023-04-15T10:46:16.336Z,13.31
2023-04-15T10:48:42.727Z,13.34
2023-04-15T10:51:09.108Z,13.35
2023-04-15T10:53:35.442Z,13.27
2023-04-15T10:56:01.840Z,13.23
2023-04-15T10:58:28.204Z,13.01
2023-04-15T11:00:54.536Z,13.06
2023-04-15T11:03:21.018Z,13.13
2023-04-15T11:05:47.487Z,13.14
2023-04-15T11:08:13.910Z,13.20
2023-04-15T11:10:40.267Z,13.04
2023-04-15T11:13:06.629Z,13.22
2023-04-15T11:15:33.028Z,13.30
2023-04-15T11:17:59.489Z,13.41
2023-04-15T11:20:25.940Z,13.58
2023-04-15T11:22:52.281Z,13.62
2023-04-15T11:25:18.670Z,13.69
2023-04-15T11:27:45.024Z,13.61
2023-04-15T11:30:11.375Z,13.75
2023-04-15T11:32:37.786Z,13.88
2023-04-15T11:35:04.178Z,14.06
2023-04-15T11:37:30.624Z,14.15
2023-04-15T11:39:57.012Z,14.17
2023-04-15T11:42:23.360Z,14.22
2023-04-15T11:44:49.701Z,14.34
2023-04-15T11:47:16.083Z,14.49
2023-04-15T11:49:42.446Z,14.45
2023-04-15T11:52:08.826Z,14.64
2023-04-15T11:54:35.217Z,14.85
2023-04-15T11:57:01.601Z,14.85
2023-04-15T11:59:38.880Z,14.74
2023-04-15T12:02:11.210Z,14.74
2023-04-15T12:04:37.845Z,14.94
2023-04-15T12:07:04.390Z,15.05
2023-04-15T12:09:32.434Z,15.16
2023-04-15T12:11:58.909Z,15.33
2023-04-15T12:14:25.311Z,15.44
2023-04-15T12:16:51.946Z,15.42
2023-04-15T12:19:19.033Z,15.44
2023-04-15T12:21:45.797Z,15.31
2023-04-15T12:24:12.192Z,15.29
2023-04-15T12:26:38.552Z,15.16
2023-04-15T12:29:04.936Z,15.06
2023-04-15T12:31:31.300Z,15.00
2023-04-15T12:33:57.684Z,14.99
2023-04-15T12:36:24.100Z,15.02
2023-04-15T12:38:50.454Z,15.01
2023-04-15T12:41:16.832Z,14.98
2023-04-15T12:43:43.213Z,15.08
2023-04-15T12:46:09.560Z,15.14
2023-04-15T12:48:35.951Z,15.26
2023-04-15T12:51:03.930Z,15.34
2023-04-15T12:53:31.932Z,15.16
2023-04-15T12:55:58.292Z,15.08
2023-04-15T12:58:24.621Z,14.97
2023-04-15T13:00:50.971Z,14.93
2023-04-15T13:03:17.413Z,15.14
2023-04-15T13:05:43.862Z,15.05
2023-04-15T13:08:10.266Z,15.04
2023-04-15T13:10:36.639Z,15.12
2023-04-15T13:13:02.974Z,15.05
2023-04-15T13:15:29.307Z,14.93
2023-04-15T13:17:55.714Z,14.99
2023-04-15T13:20:22.125Z,15.02
2023-04-15T13:22:48.468Z,14.97
2023-04-15T13:25:14.795Z,14.97
2023-04-15T13:27:41.126Z,14.94
2023-04-15T13:30:07.450Z,14.93
2023-04-15T13:32:33.828Z,14.97
2023-04-15T13:35:00.221Z,14.90
2023-04-15T13:37:26.559Z,14.85
2023-04-15T13:39:52.964Z,14.75
2023-04-15T13:42:19.396Z,14.75
2023-04-15T13:44:45.760Z,14.71
2023-04-15T13:47:12.108Z,14.65
2023-04-15T13:49:38.452Z,14.65
2023-04-15T13:52:04.837Z,14.70
2023-04-15T13:54:37.805Z,14.69
2023-04-15T13:57:04.506Z,14.62
2023-04-15T13:59:30.892Z,14.57
2023-04-15T14:01:57.424Z,14.54
2023-04-15T14:04:24.009Z,14.63
2023-04-15T14:06:50.404Z,14.64
2023-04-15T14:09:16.781Z,14.60
2023-04-15T14:11:43.165Z,14.54
2023-04-15T14:14:09.517Z,14.55
2023-04-15T14:16:35.924Z,14.51
2023-04-15T14:19:02.514Z,14.47
2023-04-15T14:21:29.107Z,14.48
2023-04-15T14:23:55.499Z,14.47
2023-04-15T14:26:21.890Z,14.39
2023-04-15T14:28:48.232Z,14.43
2023-04-15T14:31:14.611Z,14.45
2023-04-15T14:33:41.121Z,14.47
2023-04-15T14:36:07.598Z,14.39
2023-04-15T14:38:33.944Z,14.35
2023-04-15T14:41:00.324Z,14.32
2023-04-15T14:43:26.716Z,14.31
2023-04-15T14:45:53.132Z,14.26
2023-04-15T14:48:19.549Z,14.19
2023-04-15T14:50:45.927Z,14.15
2023-04-15T14:53:12.264Z,14.11
2023-04-15T14:55:38.666Z,14.11
2023-04-15T14:58:05.057Z,14.06
2023-04-15T15:00:31.398Z,14.08
2023-04-15T15:02:57.826Z,14.16
2023-04-15T15:05:24.287Z,14.09
2023-04-15T15:07:50.665Z,14.11
2023-04-15T15:10:16.998Z,14.19
2023-04-15T15:13:00.221Z,14.23
2023-04-15T15:15:29.115Z,14.28
2023-04-15T15:17:55.767Z,14.30
2023-04-15T15:20:22.874Z,14.34
2023-04-15T15:22:49.266Z,14.26
2023-04-15T15:25:15.618Z,14.19
2023-04-15T15:27:41.983Z,14.24
2023-04-15T15:30:08.309Z,14.16
2023-04-15T15:32:34.722Z,14.10
2023-04-15T15:35:01.094Z,14.26
2023-04-15T15:37:27.477Z,14.30
2023-04-15T15:39:53.829Z,14.14
2023-04-15T15:42:20.192Z,13.90
2023-04-15T15:44:46.537Z,13.87
2023-04-15T15:47:12.884Z,13.82
2023-04-15T15:49:39.247Z,13.76
2023-04-15T15:52:05.601Z,13.74
2023-04-15T15:54:31.970Z,14.01
2023-04-15T15:56:58.387Z,14.11
2023-04-15T15:59:24.773Z,14.07
2023-04-15T16:01:51.224Z,14.09
2023-04-15T16:04:17.728Z,14.15
2023-04-15T16:06:44.214Z,14.10
2023-04-15T16:09:10.618Z,13.98
2023-04-15T16:11:36.969Z,13.90
2023-04-15T16:14:03.353Z,14.05
2023-04-15T16:16:29.805Z,14.03
2023-04-15T16:18:56.238Z,13.83
2023-04-15T16:21:22.611Z,13.60
2023-04-15T16:23:48.994Z,13.69
2023-04-15T16:26:15.395Z,13.88
2023-04-15T16:28:41.778Z,14.02
2023-04-15T16:31:08.114Z,13.80
2023-04-15T16:33:34.491Z,13.43
2023-04-15T16:36:00.885Z,13.40
2023-04-15T16:38:27.257Z,13.40
2023-04-15T16:40:53.586Z,13.30
2023-04-15T16:43:19.929Z,13.51
2023-04-15T16:45:46.294Z,13.64
2023-04-15T16:48:12.669Z,13.56
2023-04-15T16:50:39.056Z,13.69
2023-04-15T16:53:05.423Z,13.78
2023-04-15T16:55:31.818Z,13.75
2023-04-15T16:58:02.201Z,13.71
2023-04-15T17:00:29.927Z,13.51
2023-04-15T17:02:56.492Z,13.49
2023-04-15T17:05:22.991Z,13.50
2023-04-15T17:07:49.344Z,13.50
2023-04-15T17:10:15.708Z,13.39
2023-04-15T17:12:42.114Z,13.10
2023-04-15T17:15:08.474Z,12.90
2023-04-15T17:17:34.854Z,12.80
2023-04-15T17:20:01.254Z,12.80
2023-04-15T17:22:27.629Z,12.99
2023-04-15T17:24:53.997Z,13.13
2023-04-15T17:27:20.322Z,13.08
2023-04-15T17:29:46.695Z,12.98
2023-04-15T17:32:13.100Z,12.93
2023-04-15T17:34:49.951Z,12.83
2023-04-15T17:37:17.585Z,12.80
2023-04-15T17:39:44.009Z,12.75
2023-04-15T17:42:10.400Z,12.66
2023-04-15T17:44:36.790Z,12.64
2023-04-15T17:47:03.171Z,12.55
2023-04-15T17:49:29.561Z,12.68
2023-04-15T17:51:55.919Z,12.96
2023-04-15T17:54:22.251Z,13.07
2023-04-15T17:56:48.584Z,13.11
2023-04-15T17:59:14.919Z,12.77
2023-04-15T18:01:41.355Z,12.47
2023-04-15T18:04:08.182Z,12.28
2023-04-15T18:06:34.869Z,12.19
2023-04-15T18:09:01.204Z,12.14
2023-04-15T18:11:27.546Z,12.13
2023-04-15T18:13:53.878Z,12.15
2023-04-15T18:16:20.263Z,12.09
2023-04-15T18:18:46.690Z,12.10
2023-04-15T18:21:13.843Z,12.21
2023-04-15T18:23:40.374Z,12.38
2023-04-15T18:26:06.732Z,12.30
2023-04-15T18:28:33.059Z,12.17
2023-04-15T18:30:59.452Z,12.03
2023-04-15T18:33:25.844Z,11.93
2023-04-15T18:35:52.243Z,11.80
2023-04-15T18:38:18.632Z,11.73
2023-04-15T18:40:45.014Z,11.71
2023-04-15T18:43:11.378Z,11.79
2023-04-15T18:45:37.781Z,11.74
2023-04-15T18:48:04.265Z,11.70
2023-04-15T18:50:30.702Z,11.72
2023-04-15T18:52:57.092Z,11.81
2023-04-15T18:55:23.451Z,11.91
2023-04-15T18:57:52.935Z,11.86
2023-04-15T19:00:19.645Z,11.82
2023-04-15T19:02:46.080Z,11.95
2023-04-15T19:05:12.473Z,11.98
2023-04-15T19:07:38.811Z,11.89
2023-04-15T19:10:05.196Z,11.84
2023-04-15T19:12:31.563Z,11.72
2023-04-15T19:14:57.946Z,11.60
2023-04-15T19:17:24.336Z,11.47
2023-04-15T19:19:50.693Z,11.39
2023-04-15T19:22:17.079Z,11.59
2023-04-15T19:24:43.499Z,11.78
2023-04-15T19:27:09.844Z,11.84
2023-04-15T19:29:36.295Z,11.97
2023-04-15T19:32:02.674Z,12.07
2023-04-15T19:34:29.012Z,12.09
2023-04-15T19:36:55.460Z,12.05
2023-04-15T19:39:21.813Z,11.95
2023-04-15T19:41:48.203Z,11.90
2023-04-15T19:44:14.611Z,11.96
2023-04-15T19:46:41.068Z,11.79
2023-04-15T19:49:07.551Z,11.65
2023-04-15T19:51:34.070Z,11.56
2023-04-15T19:54:00.485Z,11.65
2023-04-15T19:56:26.888Z,11.61
2023-04-15T19:58:53.241Z,11.46
2023-04-15T20:01:19.664Z,11.51
2023-04-15T20:03:46.208Z,11.63
2023-04-15T20:06:12.767Z,11.72
2023-04-15T20:08:39.149Z,11.75
2023-04-15T20:11:05.557Z,11.67
2023-04-15T20:13:32.147Z,11.63
2023-04-15T20:15:58.597Z,11.57
2023-04-15T20:18:24.955Z,11.48
2023-04-15T20:20:51.410Z,11.29
2023-04-15T20:23:17.773Z,11.34
2023-04-15T20:25:44.195Z,11.41
2023-04-15T20:28:10.580Z,11.26
2023-04-15T20:30:36.919Z,11.22
2023-04-15T20:33:03.409Z,11.16
2023-04-15T20:35:29.815Z,11.03
2023-04-15T20:37:56.231Z,10.97
2023-04-15T20:40:22.581Z,10.92
2023-04-15T20:42:48.962Z,10.86
2023-04-15T20:45:15.504Z,11.04
2023-04-15T20:47:41.919Z,11.14
2023-04-15T20:50:08.368Z,11.23
2023-04-15T20:52:34.756Z,11.29
2023-04-15T20:55:01.116Z,11.39
2023-04-15T20:57:27.525Z,11.49
2023-04-15T20:59:53.931Z,11.36
2023-04-15T21:02:20.549Z,11.26
2023-04-15T21:04:47.088Z,11.17
2023-04-15T21:07:13.505Z,11.18
2023-04-15T21:09:39.884Z,10.98
2023-04-15T21:12:06.234Z,10.90
2023-04-15T21:14:32.570Z,10.76
2023-04-15T21:16:58.971Z,10.77
2023-04-15T21:19:25.360Z,10.65
2023-04-15T21:21:51.781Z,10.53
2023-04-15T21:24:18.138Z,10.46
2023-04-15T21:26:44.514Z,10.55
2023-04-15T21:29:11.871Z,10.77
2023-04-15T21:31:38.673Z,10.71
2023-04-15T21:34:05.121Z,10.72
2023-04-15T21:36:31.464Z,10.73
2023-04-15T21:38:57.818Z,10.76
2023-04-15T21:41:24.168Z,10.88
2023-04-15T21:43:50.505Z,10.97
2023-04-15T21:46:23.686Z,10.86
2023-04-15T21:48:51.562Z,10.79
2023-04-15T21:51:17.970Z,10.80
2023-04-15T21:53:44.325Z,11.02
2023-04-15T21:56:10.666Z,11.23
2023-04-15T21:58:37.018Z,11.20
2023-04-15T22:01:03.363Z,11.14
2023-04-15T22:03:29.928Z,11.10
2023-04-15T22:05:56.369Z,11.29
2023-04-15T22:08:22.786Z,11.48
2023-04-15T22:10:49.157Z,11.38
2023-04-15T22:13:15.486Z,11.35
2023-04-15T22:15:41.830Z,11.48
2023-04-15T22:18:08.312Z,11.81
2023-04-15T22:20:34.693Z,12.07
2023-04-15T22:23:01.088Z,11.87
2023-04-15T22:25:27.478Z,11.69
2023-04-15T22:27:53.864Z,11.56
2023-04-15T22:30:20.258Z,11.57
2023-04-15T22:32:46.662Z,11.50
2023-04-15T22:35:13.053Z,11.45
2023-04-15T22:37:39.406Z,11.30
2023-04-15T22:40:05.792Z,11.28
2023-04-15T22:42:32.234Z,11.15
2023-04-15T22:44:58.588Z,11.24
2023-04-15T22:47:25.035Z,11.30
2023-04-15T22:49:51.410Z,11.09
2023-04-15T22:52:29.572Z,10.77
2023-04-15T22:54:56.696Z,10.56
2023-04-15T22:57:23.120Z,10.46
2023-04-15T22:59:49.516Z,10.46
2023-04-15T23:02:16.006Z,10.47
2023-04-15T23:04:42.598Z,10.40
2023-04-15T23:07:08.980Z,10.31
2023-04-15T23:09:35.375Z,10.59
2023-04-15T23:12:01.727Z,10.71
2023-04-15T23:14:28.115Z,10.52
2023-04-15T23:16:54.511Z,10.63
2023-04-15T23:19:20.898Z,10.68
2023-04-15T23:21:47.248Z,10.43
2023-04-15T23:24:13.620Z,10.17
2023-04-15T23:26:40.002Z,9.97
2023-04-15T23:29:06.382Z,9.92
2023-04-15T23:31:32.863Z,9.92
2023-04-15T23:33:59.308Z,9.99
2023-04-15T23:36:25.654Z,10.11
2023-04-15T23:38:52.035Z,10.15
2023-04-15T23:41:18.400Z,10.08
2023-04-15T23:43:44.737Z,10.00
2023-04-15T23:46:11.156Z,10.20
2023-04-15T23:48:37.578Z,10.24
2023-04-15T23:51:03.987Z,10.06
2023-04-15T23:53:30.389Z,9.82
2023-04-15T23:55:56.764Z,9.87
2023-04-15T23:58:23.152Z,9.83
